Time;durP1;ratioP1;P1;durP2;ratioP2;P2;SDS_P1;SDS_P2;PMS_P1;PMS_P2;Temp;Humidity;BMP_temperature;BMP_pressure;BME280_temperature;BME280_humidity;BME280_pressure;Samples;Min_cycle;Max_cycle;Signal;HPM_P1;HPM_P2
2021/12/23 00:00:56;;;;;;;30.92;12.30;;;;;;;1.50;47.83;99702.44;4453439;32;20136;-85
2021/12/23 00:03:22;;;;;;;30.10;12.15;;;;;;;1.49;47.83;99712.84;4440453;32;20117;-84
2021/12/23 00:05:47;;;;;;;24.60;10.70;;;;;;;1.42;48.02;99709.41;4452529;32;20109;-84
2021/12/23 00:08:13;;;;;;;27.95;11.18;;;;;;;1.32;48.30;99705.97;4453346;32;20166;-84
2021/12/23 00:10:40;;;;;;;31.25;11.45;;;;;;;1.38;48.31;99699.88;4453557;32;20120;-84
2021/12/23 00:13:05;;;;;;;31.12;12.32;;;;;;;1.37;48.37;99696.44;4440768;32;20104;-84
2021/12/23 00:15:50;;;;;;;30.62;13.68;;;;;;;1.36;48.17;99694.69;4440613;32;20192;-84
2021/12/23 00:23:28;;;;;;;32.33;13.02;;;;;;;1.25;48.18;99680.87;4453160;32;20112;-84
2021/12/23 00:26:00;;;;;;;37.60;14.93;;;;;;;1.28;47.86;99680.03;4475017;31;20467;-84
2021/12/23 00:28:27;;;;;;;34.25;13.02;;;;;;;1.19;47.75;99678.31;4488139;31;20096;-84
2021/12/23 00:30:52;;;;;;;30.85;13.55;;;;;;;1.22;47.54;99674.81;4502525;31;20100;-84
2021/12/23 00:33:18;;;;;;;34.42;13.82;;;;;;;1.25;47.49;99677.41;4502498;31;20088;-84
2021/12/23 00:35:43;;;;;;;31.05;13.30;;;;;;;1.21;47.30;99676.56;4502446;31;20110;-84
2021/12/23 00:38:21;;;;;;;37.45;15.27;;;;;;;1.21;47.31;99679.16;4502514;31;20092;-84
2021/12/23 00:40:47;;;;;;;39.70;16.73;;;;;;;1.18;47.68;99672.25;4502341;31;20107;-84
2021/12/23 00:43:12;;;;;;;39.53;17.15;;;;;;;1.01;47.96;99666.22;4502346;31;20134;-84
2021/12/23 00:45:40;;;;;;;36.38;14.13;;;;;;;1.10;47.90;99667.94;4502265;31;20176;-83
2021/12/23 00:48:05;;;;;;;33.42;14.18;;;;;;;1.04;48.23;99670.53;4502341;31;20155;-83
2021/12/23 00:50:31;;;;;;;31.90;13.23;;;;;;;1.01;48.37;99671.41;4487942;31;20131;-84
2021/12/23 00:52:59;;;;;;;33.60;13.15;;;;;;;1.03;48.17;99671.44;4502212;31;20112;-83
2021/12/23 00:55:25;;;;;;;33.17;13.50;;;;;;;1.06;48.15;99674.00;4502299;31;20093;-83
2021/12/23 00:57:50;;;;;;;28.92;12.85;;;;;;;1.02;48.27;99667.94;4502046;31;20333;-83
2021/12/23 01:00:18;;;;;;;31.42;13.62;;;;;;;1.03;48.44;99677.47;4502023;31;20107;-83
2021/12/23 01:02:45;;;;;;;30.20;12.85;;;;;;;1.06;48.52;99672.25;4502060;31;20100;-83
2021/12/23 01:05:13;;;;;;;29.12;12.45;;;;;;;1.10;49.04;99665.34;4487527;31;20764;-84
2021/12/23 01:07:38;;;;;;;29.25;12.27;;;;;;;1.05;49.07;99667.09;4502011;31;20389;-83
2021/12/23 01:10:04;;;;;;;28.00;13.10;;;;;;;0.96;49.61;99661.03;4502307;31;20149;-83
2021/12/23 01:12:37;;;;;;;27.62;12.52;;;;;;;0.91;49.65;99660.19;4487903;31;20125;-83
2021/12/23 01:15:14;;;;;;;34.17;13.90;;;;;;;0.89;49.67;99655.84;4502254;31;20084;-83
2021/12/23 01:20:40;;;;;;;31.50;13.50;;;;;;;1.03;49.21;99658.44;4493081;31;20482;-83
2021/12/23 01:23:10;;;;;;;31.87;13.60;;;;;;;1.02;49.16;99660.16;4503885;31;20451;-83
2021/12/23 01:25:38;;;;;;;29.85;13.40;;;;;;;0.97;49.21;99657.59;4503937;31;20145;-83
2021/12/23 01:28:04;;;;;;;;;;;;;;;0.98;49.28;99643.75;4504186;31;20466;-83
2021/12/23 01:30:30;;;;;;;33.03;12.90;;;;;;;1.02;49.18;99648.94;4489434;31;20028;-83
2021/12/23 01:32:56;;;;;;;30.33;13.35;;;;;;;1.01;49.25;99653.25;4503909;31;20173;-83
2021/12/23 01:35:22;;;;;;;33.00;14.18;;;;;;;1.00;49.14;99645.47;4503797;31;20462;-83
2021/12/23 01:37:48;;;;;;;30.45;13.70;;;;;;;1.02;49.17;99643.75;4489453;31;20088;-84
2021/12/23 01:40:16;;;;;;;34.30;13.65;;;;;;;1.02;49.18;99648.94;4503561;31;20140;-84
2021/12/23 01:42:41;;;;;;;31.60;13.30;;;;;;;0.97;49.26;99631.66;4489489;31;20092;-85
2021/12/23 01:45:14;;;;;;;35.47;14.45;;;;;;;0.98;49.01;99637.69;4503834;31;20114;-84
2021/12/23 01:47:40;;;;;;;34.20;13.73;;;;;;;1.03;49.33;99632.50;4489169;31;20522;-84
2021/12/23 01:50:07;;;;;;;31.62;14.35;;;;;;;1.00;49.40;99635.94;4489362;31;20165;-84
2021/12/23 01:52:32;;;;;;;31.42;13.82;;;;;;;0.95;49.58;99628.19;4503847;31;20100;-85
2021/12/23 01:54:57;;;;;;;33.50;14.70;;;;;;;0.88;49.77;99629.06;4503637;31;20088;-85
2021/12/23 01:57:24;;;;;;;31.12;12.98;;;;;;;0.97;49.87;99620.41;4503491;31;20131;-85
2021/12/23 01:59:49;;;;;;;32.58;14.05;;;;;;;1.01;49.74;99619.53;4489343;31;20526;-84
2021/12/23 02:02:15;;;;;;;34.80;13.93;;;;;;;1.01;49.71;99619.53;4503609;31;20133;-84
2021/12/23 02:04:40;;;;;;;33.13;14.68;;;;;;;0.94;49.79;99617.81;4503488;31;20103;-84
2021/12/23 02:07:05;;;;;;;34.67;14.15;;;;;;;1.00;49.63;99612.59;4503503;31;20136;-84
2021/12/23 02:09:31;;;;;;;30.30;13.48;;;;;;;0.95;49.76;99602.25;4503634;31;20084;-84
2021/12/23 02:11:57;;;;;;;34.72;14.48;;;;;;;1.02;49.61;99607.41;4503566;31;20088;-84
2021/12/23 02:14:23;;;;;;;32.85;14.20;;;;;;;1.03;49.56;99611.75;4503532;31;20128;-84
2021/12/23 02:16:48;;;;;;;33.20;15.15;;;;;;;1.09;49.38;99611.72;4503590;31;20080;-84
2021/12/23 02:19:19;;;;;;;34.47;14.60;;;;;;;0.95;49.63;99609.19;4503377;31;20444;-84
2021/12/23 02:21:46;;;;;;;30.67;13.65;;;;;;;1.00;49.67;99609.16;4489263;31;20130;-84
2021/12/23 02:24:12;;;;;;;36.17;14.68;;;;;;;0.98;49.89;99604.84;4476083;31;20087;-84
2021/12/23 02:26:38;;;;;;;30.70;13.62;;;;;;;1.01;49.94;99605.69;4503454;31;20113;-84
2021/12/23 02:29:04;;;;;;;33.72;13.90;;;;;;;1.04;50.02;99603.94;4503156;31;20126;-84
2021/12/23 02:31:29;;;;;;;37.88;14.02;;;;;;;1.02;49.89;99599.63;4503393;31;20097;-84
2021/12/23 02:33:54;;;;;;;33.85;14.65;;;;;;;1.02;49.97;99602.22;4489178;31;20123;-84
2021/12/23 02:36:20;;;;;;;30.45;13.25;;;;;;;0.97;50.15;99587.53;4503352;31;20087;-84
2021/12/23 02:38:45;;;;;;;31.12;13.13;;;;;;;1.02;50.20;99591.84;4503110;31;20497;-83
2021/12/23 02:41:10;;;;;;;31.80;13.07;;;;;;;1.05;50.02;99584.06;4489327;31;20084;-84
2021/12/23 02:43:37;;;;;;;35.13;13.77;;;;;;;0.99;50.41;99587.53;4503504;31;20106;-84
2021/12/23 02:46:02;;;;;;;31.20;13.38;;;;;;;1.04;50.08;99574.53;4503603;31;20106;-83
2021/12/23 02:48:34;;;;;;;31.50;13.32;;;;;;;0.93;50.18;99574.59;4503549;31;20088;-83
2021/12/23 02:51:02;;;;;;;36.10;14.40;;;;;;;0.98;50.07;99571.12;4503585;31;20111;-83
2021/12/23 02:53:27;;;;;;;31.35;13.27;;;;;;;0.97;49.97;99569.38;4489238;31;20106;-84
2021/12/23 02:55:55;;;;;;;31.98;13.48;;;;;;;0.97;49.93;99571.12;4503515;31;20547;-84
2021/12/23 02:58:20;;;;;;;30.37;13.52;;;;;;;0.91;50.05;99561.63;4503154;31;20485;-84
2021/12/23 03:00:48;;;;;;;27.42;13.23;;;;;;;0.94;50.04;99560.75;4503230;31;20084;-84
2021/12/23 03:03:14;;;;;;;30.77;13.10;;;;;;;0.95;50.05;99559.87;4503329;31;20481;-83
2021/12/23 03:05:45;;;;;;;28.45;12.80;;;;;;;0.91;50.21;99552.97;4503242;31;20091;-84
2021/12/23 03:08:10;;;;;;;31.67;12.93;;;;;;;0.90;50.44;99559.03;4488977;31;20110;-83
2021/12/23 03:10:36;;;;;;;28.02;12.52;;;;;;;0.93;50.39;99553.84;4503222;31;20111;-83
2021/12/23 03:13:01;;;;;;;31.23;13.23;;;;;;;0.82;50.73;99551.25;4503222;31;20081;-83
2021/12/23 03:15:27;;;;;;;29.75;11.80;;;;;;;0.86;51.02;99554.72;4503100;31;20108;-83
2021/12/23 03:17:52;;;;;;;32.55;13.65;;;;;;;0.73;51.57;99553.88;4488925;31;20337;-83
2021/12/23 03:20:17;;;;;;;29.98;13.30;;;;;;;0.84;51.00;99546.94;4502992;31;20108;-83
2021/12/23 03:22:43;;;;;;;31.02;12.15;;;;;;;0.82;51.08;99553.00;4503129;31;20141;-84
2021/12/23 03:25:08;;;;;;;27.15;12.32;;;;;;;0.81;51.13;99549.53;4488748;31;20120;-85
2021/12/23 03:27:34;;;;;;;31.42;13.13;;;;;;;0.80;51.00;99549.56;4503133;31;20404;-85
2021/12/23 03:30:00;;;;;;;29.65;12.65;;;;;;;0.77;51.45;99548.69;4503118;31;20079;-84
2021/12/23 03:32:25;;;;;;;28.75;12.85;;;;;;;0.83;51.57;99542.63;4488708;31;20244;-84
2021/12/23 03:34:50;;;;;;;26.02;10.85;;;;;;;0.81;51.21;99539.16;4488823;31;20100;-84
2021/12/23 03:37:16;;;;;;;31.30;12.88;;;;;;;0.82;50.94;99534.84;4502961;31;20096;-84
2021/12/23 03:39:41;;;;;;;29.10;11.95;;;;;;;0.75;50.93;99531.41;4501571;31;20110;-85
2021/12/23 03:42:07;;;;;;;27.65;12.15;;;;;;;0.75;50.80;99532.28;4503034;31;20122;-84
2021/12/23 03:44:33;;;;;;;28.75;11.80;;;;;;;0.73;50.78;99531.38;4502935;31;20469;-84
2021/12/23 03:46:59;;;;;;;29.17;12.70;;;;;;;0.76;50.76;99528.81;4502885;31;20129;-84
2021/12/23 03:49:24;;;;;;;30.08;12.40;;;;;;;0.75;50.68;99534.88;4488543;31;20100;-83
2021/12/23 03:51:49;;;;;;;32.05;13.18;;;;;;;0.73;50.70;99530.53;4502748;31;20080;-83
2021/12/23 03:54:15;;;;;;;29.98;12.43;;;;;;;0.80;50.47;99534.00;4502784;31;20076;-83
2021/12/23 03:56:41;;;;;;;30.15;12.25;;;;;;;0.83;50.19;99531.38;4488431;31;20148;-83
2021/12/23 03:59:07;;;;;;;28.00;11.93;;;;;;;0.83;50.02;99528.78;4502732;31;20470;-83
2021/12/23 04:01:33;;;;;;;27.65;12.30;;;;;;;0.86;49.80;99528.78;4488693;31;20123;-83
2021/12/23 04:03:58;;;;;;;28.98;12.18;;;;;;;0.87;49.59;99521.00;4503042;31;20107;-83
2021/12/23 04:06:26;;;;;;;28.90;12.88;;;;;;;0.89;49.57;99521.84;4503046;31;20104;-84
2021/12/23 04:08:52;;;;;;;27.92;12.35;;;;;;;0.88;49.87;99527.03;4503096;31;20529;-84
2021/12/23 04:11:17;;;;;;;28.25;12.37;;;;;;;0.85;49.95;99522.75;4502936;31;20092;-84
2021/12/23 04:13:42;;;;;;;32.35;12.30;;;;;;;0.90;49.68;99513.19;4502929;31;20160;-84
2021/12/23 04:16:08;;;;;;;26.73;11.75;;;;;;;0.88;49.61;99511.47;4503051;31;20365;-84
2021/12/23 04:18:33;;;;;;;30.17;11.68;;;;;;;0.89;49.14;99511.47;4502840;31;20340;-84
2021/12/23 04:20:59;;;;;;;31.45;12.32;;;;;;;0.83;49.22;99516.69;4502924;31;20080;-84
2021/12/23 04:23:27;;;;;;;28.90;12.52;;;;;;;0.83;49.09;99508.03;4502931;31;20088;-84
2021/12/23 04:25:53;;;;;;;30.15;12.85;;;;;;;0.83;49.08;99516.69;4502850;31;20441;-83
2021/12/23 04:28:19;;;;;;;34.20;12.90;;;;;;;0.78;49.28;99502.88;4488326;31;20130;-84
2021/12/23 04:30:45;;;;;;;31.62;12.37;;;;;;;0.80;49.16;99508.06;4488095;31;20408;-83
2021/12/23 04:33:11;;;;;;;30.30;12.70;;;;;;;0.77;49.16;99499.41;4488154;31;20447;-83
2021/12/23 04:35:36;;;;;;;30.83;12.88;;;;;;;0.76;49.02;99500.28;4502523;31;20157;-84
2021/12/23 04:38:02;;;;;;;29.37;12.48;;;;;;;0.78;48.98;99493.34;4488062;31;20464;-84
2021/12/23 04:40:30;;;;;;;28.33;12.48;;;;;;;0.73;49.11;99497.69;4502276;31;20080;-84
2021/12/23 04:42:55;;;;;;;;;;;;;;;0.79;49.22;99499.38;4502674;31;20103;-84
2021/12/23 04:45:21;;;;;;;32.90;13.40;;;;;;;0.86;49.01;99500.25;4502441;31;19972;-84
2021/12/23 04:47:46;;;;;;;34.03;12.95;;;;;;;0.76;48.81;99502.00;4502305;31;20435;-84
2021/12/23 04:50:14;;;;;;;31.02;12.15;;;;;;;0.68;49.26;99493.41;4487848;31;20088;-84
2021/12/23 04:52:41;;;;;;;29.75;12.95;;;;;;;0.68;49.57;99489.06;4502026;31;20084;-84
2021/12/23 04:55:07;;;;;;;32.03;12.13;;;;;;;0.65;49.74;99490.81;4502252;31;20104;-84
2021/12/23 04:57:32;;;;;;;31.15;13.45;;;;;;;0.62;49.98;99493.41;4502204;31;20107;-84
2021/12/23 04:59:58;;;;;;;30.98;12.82;;;;;;;0.69;50.25;99493.38;4502082;31;20394;-84
2021/12/23 05:02:23;;;;;;;35.00;13.77;;;;;;;0.72;49.97;99490.78;4502166;31;20123;-84
2021/12/23 05:04:52;;;;;;;31.87;12.52;;;;;;;0.69;49.60;99487.34;4502019;31;20111;-84
2021/12/23 05:07:19;;;;;;;33.25;13.38;;;;;;;0.70;49.53;99497.72;4502059;31;20168;-84
2021/12/23 05:09:44;;;;;;;28.70;13.05;;;;;;;0.70;49.51;99496.84;4501973;31;20087;-83
2021/12/23 05:12:12;;;;;;;34.75;13.77;;;;;;;0.59;49.55;99497.72;4502138;31;20443;-83
2021/12/23 05:14:38;;;;;;;31.08;12.82;;;;;;;0.69;49.35;99492.53;4501953;31;20477;-84
2021/12/23 05:17:04;;;;;;;33.35;13.43;;;;;;;0.69;49.54;99490.78;4501786;31;20096;-84
2021/12/23 05:19:29;;;;;;;34.15;13.05;;;;;;;0.73;49.37;99494.22;4501746;31;20124;-82
2021/12/23 05:21:54;;;;;;;27.50;12.52;;;;;;;0.70;49.57;99489.06;4501777;31;20098;-82
2021/12/23 05:24:20;;;;;;;30.65;13.90;;;;;;;0.68;49.66;99481.28;4487479;31;20100;-82
2021/12/23 05:26:45;;;;;;;30.58;12.90;;;;;;;0.71;49.44;99480.41;4501764;31;20084;-83
2021/12/23 05:29:11;;;;;;;27.67;12.48;;;;;;;0.75;49.29;99483.00;4501728;31;20118;-83
2021/12/23 05:31:38;;;;;;;28.90;12.85;;;;;;;0.75;49.30;99475.22;4487443;31;20079;-83
2021/12/23 05:34:03;;;;;;;33.13;13.02;;;;;;;0.75;49.69;99476.94;4501637;31;20443;-83
2021/12/23 05:36:29;;;;;;;29.98;12.20;;;;;;;0.67;49.61;99484.75;4487325;31;20149;-84
2021/12/23 05:38:54;;;;;;;31.45;13.52;;;;;;;0.75;49.52;99482.13;4501259;31;20126;-84
2021/12/23 05:41:22;;;;;;;29.23;12.88;;;;;;;0.71;49.60;99489.03;4487275;31;20092;-84
2021/12/23 05:43:48;;;;;;;33.25;12.55;;;;;;;0.69;49.74;99490.78;4501515;31;20119;-85
2021/12/23 05:46:13;;;;;;;30.65;12.75;;;;;;;0.69;49.84;99497.72;4501529;31;20119;-84
2021/12/23 05:48:39;;;;;;;32.80;13.00;;;;;;;0.72;49.97;99488.19;4487161;31;20083;-83
2021/12/23 05:51:04;;;;;;;30.02;11.88;;;;;;;0.78;50.09;99495.94;4486896;31;20169;-83
2021/12/23 05:53:30;;;;;;;31.87;12.52;;;;;;;0.80;49.91;99490.75;4501388;31;20091;-83
2021/12/23 05:55:55;;;;;;;29.75;12.32;;;;;;;0.85;49.66;99488.13;4486961;31;20112;-84
2021/12/23 05:58:21;;;;;;;33.88;13.38;;;;;;;0.94;49.28;99481.16;4501186;31;20088;-83
2021/12/23 06:00:46;;;;;;;31.62;12.88;;;;;;;0.88;49.30;99480.34;4486961;31;20364;-83
2021/12/23 06:03:11;;;;;;;32.15;12.60;;;;;;;0.95;49.28;99480.31;4502014;31;20093;-83
2021/12/23 06:05:37;;;;;;;30.65;12.80;;;;;;;1.03;48.90;99475.09;4503658;31;20345;-83
2021/12/23 06:08:02;;;;;;;31.55;11.77;;;;;;;1.02;48.85;99478.53;4503607;31;20083;-84
2021/12/23 06:10:28;;;;;;;28.58;11.85;;;;;;;1.07;48.85;99466.41;4503591;31;20389;-83
2021/12/23 06:12:53;;;;;;;28.38;12.05;;;;;;;1.19;48.34;99473.28;4503409;31;20123;-83
2021/12/23 06:15:19;;;;;;;29.80;12.63;;;;;;;1.25;48.07;99475.81;4503563;31;20420;-83
2021/12/23 06:17:45;;;;;;;28.85;12.50;;;;;;;1.21;48.12;99468.06;4503365;31;20427;-83
2021/12/23 06:20:11;;;;;;;31.65;12.65;;;;;;;1.28;48.14;99462.00;4503472;31;20080;-83
2021/12/23 06:22:37;;;;;;;28.65;12.43;;;;;;;1.35;48.13;99469.72;4503397;31;20450;-83
2021/12/23 06:25:05;;;;;;;28.10;12.98;;;;;;;1.34;48.18;99474.94;4503589;31;20096;-85
2021/12/23 06:27:30;;;;;;;27.90;11.75;;;;;;;1.50;47.64;99466.16;4503583;31;20739;-85
2021/12/23 06:29:56;;;;;;;27.90;12.10;;;;;;;1.54;47.84;99467.00;4488973;31;20107;-85
2021/12/23 06:32:21;;;;;;;29.05;12.40;;;;;;;1.57;48.23;99470.44;4503532;31;20088;-85
2021/12/23 06:34:47;;;;;;;26.12;11.75;;;;;;;1.65;47.92;99467.78;4503379;31;20144;-90
2021/12/23 06:37:12;;;;;;;24.17;11.27;;;;;;;1.66;47.80;99461.72;4503518;31;20140;-88
2021/12/23 06:39:39;;;;;;;29.92;11.65;;;;;;;1.70;47.20;99463.44;4503414;31;20084;-88
2021/12/23 06:42:05;;;;;;;27.58;11.75;;;;;;;1.76;46.87;99463.38;4490545;31;20126;-88
2021/12/23 06:44:31;;;;;;;29.00;11.30;;;;;;;1.84;46.50;99470.25;4503763;31;20091;-89
2021/12/23 06:46:56;;;;;;;29.77;11.82;;;;;;;1.85;46.29;99466.75;4489313;31;20367;-84
2021/12/23 06:49:22;;;;;;;28.98;11.23;;;;;;;1.82;46.31;99467.66;4503407;31;20505;-80
2021/12/23 06:51:48;;;;;;;28.45;11.57;;;;;;;1.88;46.03;99470.19;4488364;31;20153;-82
2021/12/23 06:54:15;;;;;;;29.63;12.27;;;;;;;1.93;46.28;99468.44;4477639;31;20166;-83
2021/12/23 06:56:40;;;;;;;26.25;11.95;;;;;;;1.94;46.15;99467.53;4490961;31;20108;-85
2021/12/23 06:59:06;;;;;;;27.95;12.10;;;;;;;1.95;46.12;99471.00;4492045;31;20106;-85
2021/12/23 07:01:32;;;;;;;27.58;11.75;;;;;;;2.04;45.66;99468.31;4475777;31;20096;-81
2021/12/23 07:04:06;;;;;;;29.48;11.85;;;;;;;2.01;45.89;99478.75;4489313;31;20396;-81
2021/12/23 07:06:35;;;;;;;25.27;11.63;;;;;;;2.05;46.16;99474.38;4496728;31;20084;-82
2021/12/23 07:09:02;;;;;;;29.83;12.30;;;;;;;2.12;46.11;99461.31;4489929;31;20114;-81
2021/12/23 07:11:28;;;;;;;28.85;12.02;;;;;;;2.06;46.07;99466.56;4472825;32;20096;-82
2021/12/23 07:13:53;;;;;;;31.23;11.65;;;;;;;2.12;45.77;99458.72;4486520;31;20153;-80
2021/12/23 07:16:18;;;;;;;23.70;10.93;;;;;;;2.09;45.93;99457.91;4493156;31;20415;-82
2021/12/23 07:18:44;;;;;;;27.80;11.27;;;;;;;2.11;45.86;99456.16;4487917;31;20089;-81
2021/12/23 07:21:09;;;;;;;27.55;11.57;;;;;;;2.17;45.59;99458.69;4499858;31;20478;-81
2021/12/23 07:23:35;;;;;;;24.77;11.02;;;;;;;2.21;45.40;99467.31;4490339;31;20099;-81
2021/12/23 07:26:00;;;;;;;27.55;11.00;;;;;;;2.23;45.42;99457.75;4500052;31;20160;-82
2021/12/23 07:28:25;;;;;;;30.60;11.55;;;;;;;2.17;45.12;99451.75;4493435;31;20345;-82
2021/12/23 07:30:51;;;;;;;29.00;10.85;;;;;;;2.19;45.89;99456.94;4498555;31;20478;-81
2021/12/23 07:33:16;;;;;;;28.67;11.80;;;;;;;2.27;45.80;99447.31;4475020;31;20096;-82
2021/12/23 07:35:42;;;;;;;25.45;11.40;;;;;;;2.35;45.22;99455.03;4489406;31;20096;-87
2021/12/23 07:38:07;;;;;;;27.27;11.50;;;;;;;2.40;44.99;99455.84;4487040;32;20103;-81
2021/12/23 07:40:33;;;;;;;24.50;10.45;;;;;;;2.37;44.83;99459.31;4485784;32;20112;-82
2021/12/23 07:43:09;;;;;;;28.42;12.02;;;;;;;2.46;44.68;99458.38;4485912;31;20408;-82
2021/12/23 07:45:36;;;;;;;28.17;11.38;;;;;;;2.49;44.28;99458.34;4485956;31;20100;-82
2021/12/23 07:48:02;;;;;;;24.95;11.20;;;;;;;2.44;44.57;99449.72;4485535;32;20131;-82
2021/12/23 07:50:27;;;;;;;26.90;11.10;;;;;;;2.53;44.45;99441.84;4487069;31;20096;-82
2021/12/23 07:52:53;;;;;;;27.42;11.40;;;;;;;2.57;44.25;99437.47;4485939;32;20219;-84
2021/12/23 07:55:20;;;;;;;28.92;12.35;;;;;;;2.52;44.35;99440.09;4487086;31;20140;-82
2021/12/23 07:57:45;;;;;;;23.20;10.00;;;;;;;2.62;44.26;99429.59;4486975;31;20089;-81
2021/12/23 08:00:11;;;;;;;24.33;10.50;;;;;;;2.70;44.02;99430.34;4487008;31;20089;-81
2021/12/23 08:02:37;;;;;;;24.45;10.07;;;;;;;2.64;43.49;99428.69;4485666;32;20104;-81
2021/12/23 08:05:03;;;;;;;27.20;11.12;;;;;;;2.78;43.58;99418.09;4487073;31;20141;-81
2021/12/23 08:07:28;;;;;;;24.10;10.20;;;;;;;2.68;43.79;99419.97;4472558;32;20133;-81
2021/12/23 08:09:54;;;;;;;25.92;11.20;;;;;;;2.80;43.53;99420.69;4486980;31;20093;-85
2021/12/23 08:12:19;;;;;;;24.02;10.55;;;;;;;2.77;43.46;99419.00;4487041;32;20115;-84
2021/12/23 08:14:44;;;;;;;26.27;11.00;;;;;;;2.77;43.34;99413.78;4486809;31;20108;-84
2021/12/23 08:17:10;;;;;;;25.50;10.45;;;;;;;2.90;43.08;99415.34;4485613;32;20112;-84
2021/12/23 08:19:35;;;;;;;26.98;10.32;;;;;;;2.82;42.71;99416.31;4486866;31;20122;-84
2021/12/23 08:22:01;;;;;;;26.42;11.55;;;;;;;2.90;42.88;99417.97;4486774;31;20088;-84
2021/12/23 08:24:26;;;;;;;25.60;10.98;;;;;;;2.89;42.92;99402.34;4485755;32;20116;-84
2021/12/23 08:26:53;;;;;;;24.17;9.77;;;;;;;2.93;42.64;99401.44;4484819;32;20088;-84
2021/12/23 08:29:20;;;;;;;27.05;10.25;;;;;;;2.87;42.74;99406.72;4486734;31;20221;-84
2021/12/23 08:31:47;;;;;;;24.37;10.63;;;;;;;2.83;42.78;99408.50;4486779;31;20175;-84
2021/12/23 08:34:13;;;;;;;26.10;10.77;;;;;;;2.95;42.63;99408.38;4485467;32;20155;-84
2021/12/23 08:36:38;;;;;;;22.92;10.38;;;;;;;3.00;42.42;99397.88;4486728;31;20416;-84
2021/12/23 08:39:04;;;;;;;27.25;10.48;;;;;;;2.95;42.33;99394.47;4486203;32;20447;-83
2021/12/23 08:41:29;;;;;;;25.98;9.45;;;;;;;2.77;43.18;99406.00;4485455;32;20096;-84
2021/12/23 08:43:54;;;;;;;21.33;9.38;;;;;;;2.82;42.55;99401.59;4486494;31;20130;-84
2021/12/23 08:46:20;;;;;;;24.52;9.70;;;;;;;3.02;42.24;99406.53;4485161;32;20100;-84
2021/12/23 08:48:46;;;;;;;23.95;9.85;;;;;;;3.06;41.52;99400.38;4486758;31;20096;-84
2021/12/23 08:51:11;;;;;;;22.87;9.52;;;;;;;3.10;41.31;99403.81;4485680;32;20383;-84
2021/12/23 08:53:36;;;;;;;21.75;9.02;;;;;;;3.08;40.93;99402.97;4486667;32;20079;-84
2021/12/23 08:56:02;;;;;;;25.50;9.10;;;;;;;3.19;40.90;99405.41;4485453;32;20088;-84
2021/12/23 08:58:28;;;;;;;22.73;8.48;;;;;;;3.20;40.53;99401.94;4485455;32;20100;-84
2021/12/23 09:00:53;;;;;;;21.12;9.02;;;;;;;3.28;40.52;99397.47;4486662;31;20150;-84
2021/12/23 09:03:18;;;;;;;22.13;9.30;;;;;;;3.30;40.42;99396.56;4486415;31;20080;-84
2021/12/23 09:05:44;;;;;;;24.40;9.15;;;;;;;3.34;39.89;99405.19;4486311;32;20084;-84
2021/12/23 09:08:10;;;;;;;19.77;8.75;;;;;;;3.36;39.72;99400.81;4486255;31;20089;-84
2021/12/23 09:10:36;;;;;;;19.50;8.35;;;;;;;3.47;39.43;99400.66;4485067;32;20126;-84
2021/12/23 09:13:02;;;;;;;17.80;7.93;;;;;;;3.57;39.29;99383.13;4486178;31;20088;-84
2021/12/23 09:15:27;;;;;;;18.98;8.35;;;;;;;3.62;38.64;99371.75;4486231;31;20089;-85
2021/12/23 09:17:53;;;;;;;21.48;8.80;;;;;;;3.59;38.67;99369.16;4486047;31;20372;-84
2021/12/23 09:20:20;;;;;;;19.60;7.75;;;;;;;3.60;38.69;99370.06;4484752;32;20100;-84
2021/12/23 09:22:47;;;;;;;23.60;8.80;;;;;;;3.59;38.82;99370.94;4486136;31;20408;-84
2021/12/23 09:25:22;;;;;;;19.50;8.75;;;;;;;3.68;38.66;99363.81;4486016;31;20128;-84
2021/12/23 09:27:59;;;;;;;21.65;8.73;;;;;;;3.73;38.60;99363.75;4486132;31;20096;-84
2021/12/23 09:33:10;;;;;;;21.30;8.38;;;;;;;3.75;38.99;99348.94;4484952;32;20202;-85
2021/12/23 09:35:39;;;;;;;20.83;8.20;;;;;;;3.82;38.82;99342.72;4485850;31;20076;-84
2021/12/23 09:38:04;;;;;;;23.27;9.35;;;;;;;3.81;38.41;99341.00;4485308;32;20124;-84
2021/12/23 09:40:32;;;;;;;20.95;9.07;;;;;;;3.83;38.40;99336.63;4487670;31;20116;-84
2021/12/23 09:42:59;;;;;;;;;;;;;;;3.82;38.21;99334.91;4487289;32;20157;-84
2021/12/23 09:45:24;;;;;;;19.20;8.18;;;;;;;3.84;37.90;99329.66;4486893;32;20048;-84
2021/12/23 09:47:50;;;;;;;20.23;7.80;;;;;;;3.78;38.02;99338.44;4486852;32;20115;-84
2021/12/23 09:50:18;;;;;;;19.17;7.85;;;;;;;3.77;38.38;99330.66;4488060;31;20118;-84
2021/12/23 09:52:49;;;;;;;22.02;8.13;;;;;;;3.82;38.17;99332.28;4486793;32;20104;-84
2021/12/23 09:55:20;;;;;;;21.70;9.07;;;;;;;3.87;38.20;99320.03;4487967;31;20089;-84
2021/12/23 09:57:47;;;;;;;19.17;7.87;;;;;;;3.91;38.36;99318.25;4486737;32;20452;-84
2021/12/23 10:00:16;;;;;;;19.27;8.30;;;;;;;4.01;38.20;99318.91;4486704;32;20105;-84
2021/12/23 10:02:42;;;;;;;22.83;8.88;;;;;;;4.09;37.84;99320.47;4487960;31;20080;-84
2021/12/23 10:05:14;;;;;;;19.40;8.10;;;;;;;4.18;37.84;99321.22;4487874;31;20148;-84
2021/12/23 10:07:41;;;;;;;20.08;7.85;;;;;;;4.19;37.80;99309.88;4488024;31;20099;-84
2021/12/23 10:10:19;;;;;;;21.60;8.30;;;;;;;4.31;37.60;99310.50;4486936;32;20105;-84
2021/12/23 10:38:05;;;;;;;20.37;7.85;;;;;;;4.47;36.81;99268.44;4486790;32;20102;-84
2021/12/23 10:40:31;;;;;;;20.33;7.95;;;;;;;4.38;36.76;99256.44;4486215;32;20096;-84
2021/12/23 10:42:56;;;;;;;17.20;6.90;;;;;;;4.43;37.00;99259.81;4486523;32;20151;-85
2021/12/23 10:45:22;;;;;;;18.92;7.07;;;;;;;4.48;36.53;99246.66;4487615;31;20364;-84
2021/12/23 10:48:01;;;;;;;19.62;7.18;;;;;;;4.40;36.71;99239.00;4486211;32;20093;-84
2021/12/23 10:50:34;;;;;;;19.12;7.20;;;;;;;4.35;36.93;99235.66;4486058;32;20092;-84
2021/12/23 10:53:07;;;;;;;19.80;7.55;;;;;;;4.37;37.11;99223.44;4486495;32;20115;-84
2021/12/23 10:58:18;;;;;;;19.20;7.30;;;;;;;4.40;36.82;99210.28;4487681;32;20388;-84
2021/12/23 11:00:50;;;;;;;19.87;7.80;;;;;;;4.43;36.86;99207.63;4487482;31;20096;-84
2021/12/23 11:06:24;;;;;;;18.37;6.85;;;;;;;4.47;37.04;99209.28;4486254;32;20167;-84
2021/12/23 11:09:10;;;;;;;17.67;7.18;;;;;;;4.43;36.79;99205.03;4486476;32;20441;-84
2021/12/23 11:43:57;;;;;;;20.12;6.95;;;;;;;4.87;36.53;99116.97;4486075;32;20496;-84
2021/12/23 11:46:37;;;;;;;14.75;5.90;;;;;;;4.85;36.28;99104.88;4486226;32;20164;-84
2021/12/23 11:49:07;;;;;;;19.27;6.70;;;;;;;4.92;36.22;99104.66;4487192;31;20107;-84
2021/12/23 11:54:03;;;;;;;14.77;5.68;;;;;;;4.99;35.82;99096.66;4485822;32;20135;-84
2021/12/23 11:56:31;;;;;;;16.80;6.12;;;;;;;4.79;35.85;99094.56;4486180;32;20413;-84
2021/12/23 11:58:59;;;;;;;15.40;6.05;;;;;;;4.83;35.86;99097.06;4487285;31;20115;-84
2021/12/23 12:01:26;;;;;;;;;;;;;;;4.83;36.18;99081.41;4472611;32;20130;-84
2021/12/23 12:03:56;;;;;;;16.37;5.45;;;;;;;4.84;36.06;99079.63;4486189;32;20002;-85
2021/12/23 12:06:28;;;;;;;15.40;5.45;;;;;;;4.90;35.65;99077.72;4487082;31;20144;-84
2021/12/23 12:08:58;;;;;;;13.70;4.97;;;;;;;4.82;35.67;99071.84;4487089;31;20398;-84
2021/12/23 12:11:25;;;;;;;12.77;5.10;;;;;;;4.80;35.84;99071.03;4485847;32;20131;-84
2021/12/23 12:13:51;;;;;;;15.25;5.53;;;;;;;4.80;35.98;99065.81;4487034;31;20156;-84
2021/12/23 12:16:25;;;;;;;16.92;5.50;;;;;;;4.91;35.92;99065.53;4472516;32;20100;-84
2021/12/23 12:18:51;;;;;;;14.63;5.62;;;;;;;4.91;35.76;99061.16;4485544;32;20149;-84
2021/12/23 12:21:22;;;;;;;14.32;5.25;;;;;;;4.85;36.01;99063.94;4485766;32;20085;-84
2021/12/23 12:23:47;;;;;;;17.23;5.82;;;;;;;4.90;35.51;99054.22;4486923;31;20100;-84
2021/12/23 12:26:32;;;;;;;16.75;5.03;;;;;;;4.86;35.63;99060.41;4485777;32;20095;-84
2021/12/23 12:29:05;;;;;;;13.98;5.18;;;;;;;4.80;35.50;99057.97;4486927;32;20084;-84
2021/12/23 12:31:38;;;;;;;14.45;4.95;;;;;;;4.65;35.95;99048.78;4485682;32;20143;-84
2021/12/23 12:34:07;;;;;;;13.32;4.87;;;;;;;4.66;35.95;99044.47;4485807;32;20463;-84
2021/12/23 12:36:50;;;;;;;13.82;5.20;;;;;;;4.58;35.67;99042.03;4485614;32;20124;-84
2021/12/23 12:39:24;;;;;;;18.05;5.18;;;;;;;4.60;35.96;99039.41;4486503;31;20088;-83
2021/12/23 12:41:51;;;;;;;13.98;4.90;;;;;;;4.42;36.21;99040.72;4485463;32;20127;-84
2021/12/23 12:46:58;;;;;;;15.15;5.28;;;;;;;4.53;35.63;99036.94;4486708;31;20148;-84